createdAt,value
2018-07-04T00:00:48.636Z,0.00
2018-07-04T00:01:48.566Z,0.00
2018-07-04T00:02:48.494Z,0.00
2018-07-04T00:03:48.422Z,0.00
2018-07-04T00:04:48.354Z,0.00
2018-07-04T00:05:48.284Z,0.00
2018-07-04T00:06:48.213Z,0.00
2018-07-04T00:07:48.140Z,0.00
2018-07-04T00:08:48.069Z,0.00
2018-07-04T00:09:47.999Z,0.00
2018-07-04T00:10:47.929Z,0.00
2018-07-04T00:11:47.856Z,0.00
2018-07-04T00:12:47.785Z,0.00
2018-07-04T00:13:47.716Z,0.00
2018-07-04T00:14:47.645Z,0.00
2018-07-04T00:15:47.574Z,0.00
2018-07-04T00:16:47.507Z,0.00
2018-07-04T00:17:47.433Z,0.00
2018-07-04T00:18:47.361Z,0.00
2018-07-04T00:19:47.291Z,0.00
2018-07-04T00:20:47.220Z,0.00
2018-07-04T00:21:47.151Z,0.00
2018-07-04T00:22:47.080Z,0.00
2018-07-04T00:23:47.008Z,0.00
2018-07-04T00:24:46.936Z,0.00
2018-07-04T00:25:46.926Z,0.00
2018-07-04T00:26:46.796Z,0.00
2018-07-04T00:27:46.724Z,0.00
2018-07-04T00:28:46.655Z,0.00
2018-07-04T00:29:46.585Z,0.00
2018-07-04T00:30:46.514Z,0.00
2018-07-04T00:31:46.441Z,0.00
2018-07-04T00:32:46.371Z,0.00
2018-07-04T00:33:46.300Z,0.00
2018-07-04T00:34:46.231Z,0.00
2018-07-04T00:35:46.158Z,0.00
2018-07-04T00:36:46.089Z,0.00
2018-07-04T00:37:46.019Z,0.00
2018-07-04T00:38:45.946Z,0.00
2018-07-04T00:39:45.876Z,0.00
2018-07-04T00:40:45.806Z,0.00
2018-07-04T00:41:45.736Z,0.00
2018-07-04T00:42:45.663Z,0.00
2018-07-04T00:43:45.593Z,0.00
2018-07-04T00:44:45.523Z,0.00
2018-07-04T00:45:45.453Z,0.00
2018-07-04T00:46:45.380Z,0.00
2018-07-04T00:47:45.310Z,0.00
2018-07-04T00:48:45.239Z,0.00
2018-07-04T00:49:45.169Z,0.00
2018-07-04T00:50:45.101Z,0.00
2018-07-04T00:51:45.035Z,0.00
2018-07-04T00:52:44.956Z,0.00
2018-07-04T00:53:44.885Z,0.00
2018-07-04T00:54:44.815Z,0.00
2018-07-04T00:55:45.094Z,0.00
2018-07-04T00:56:44.672Z,0.00
2018-07-04T00:57:44.604Z,0.00
2018-07-04T00:58:44.532Z,0.00
2018-07-04T00:59:44.459Z,0.00
2018-07-04T01:00:44.391Z,0.00
2018-07-04T01:01:44.318Z,0.00
2018-07-04T01:02:44.252Z,0.00
2018-07-04T01:03:44.179Z,0.00
2018-07-04T01:04:44.107Z,0.00
2018-07-04T01:05:44.036Z,0.00
2018-07-04T01:06:43.965Z,0.00
2018-07-04T01:07:43.894Z,0.00
2018-07-04T01:08:43.826Z,0.00
2018-07-04T01:09:43.753Z,0.00
2018-07-04T01:10:43.683Z,0.00
2018-07-04T01:11:43.610Z,0.00
2018-07-04T01:12:43.540Z,0.00
2018-07-04T01:13:43.471Z,0.00
2018-07-04T01:14:43.398Z,0.00
2018-07-04T01:15:43.328Z,0.00
2018-07-04T01:16:43.256Z,0.00
2018-07-04T01:17:43.186Z,0.00
2018-07-04T01:18:43.117Z,0.00
2018-07-04T01:19:43.044Z,0.00
2018-07-04T01:20:42.974Z,0.00
2018-07-04T01:21:42.950Z,0.00
2018-07-04T01:22:42.832Z,0.00
2018-07-04T01:23:42.761Z,0.00
2018-07-04T01:24:42.691Z,0.00
2018-07-04T01:25:42.620Z,0.00
2018-07-04T01:26:42.550Z,0.00
2018-07-04T01:27:42.479Z,0.00
2018-07-04T01:28:42.408Z,0.00
2018-07-04T01:29:42.343Z,0.00
2018-07-04T01:30:42.268Z,0.00
2018-07-04T01:31:42.196Z,0.00
2018-07-04T01:32:42.125Z,0.00
2018-07-04T01:33:42.057Z,0.00
2018-07-04T01:34:41.986Z,0.00
2018-07-04T01:35:41.915Z,0.00
2018-07-04T01:36:41.844Z,0.00
2018-07-04T01:37:41.775Z,0.00
2018-07-04T01:38:41.705Z,0.00
2018-07-04T01:39:41.633Z,0.00
2018-07-04T01:40:41.563Z,0.00
2018-07-04T01:41:41.493Z,0.00
2018-07-04T01:42:41.428Z,0.00
2018-07-04T01:43:41.352Z,0.00
2018-07-04T01:44:41.281Z,0.00
2018-07-04T01:45:41.212Z,0.00
2018-07-04T01:46:41.141Z,0.00
2018-07-04T01:47:41.069Z,0.00
2018-07-04T01:48:40.998Z,0.00
2018-07-04T01:49:40.929Z,0.00
2018-07-04T01:50:40.859Z,0.00
2018-07-04T01:51:40.791Z,0.00
2018-07-04T01:52:40.717Z,0.00
2018-07-04T01:53:40.647Z,0.00
2018-07-04T01:54:40.576Z,0.00
2018-07-04T01:55:40.505Z,0.00
2018-07-04T01:56:40.475Z,0.00
2018-07-04T01:57:40.363Z,0.00
2018-07-04T01:58:40.296Z,0.00
2018-07-04T01:59:40.222Z,0.00
2018-07-04T02:00:40.150Z,0.00
2018-07-04T02:01:40.081Z,0.00
2018-07-04T02:02:40.011Z,0.00
2018-07-04T02:03:39.939Z,0.00
2018-07-04T02:04:39.868Z,0.00
2018-07-04T02:05:39.801Z,0.00
2018-07-04T02:06:39.726Z,0.00
2018-07-04T02:07:39.654Z,0.00
2018-07-04T02:08:39.584Z,0.00
2018-07-04T02:09:39.512Z,0.00
2018-07-04T02:10:39.443Z,0.00
2018-07-04T02:11:39.370Z,0.00
2018-07-04T02:12:39.300Z,0.00
2018-07-04T02:13:39.229Z,0.00
2018-07-04T02:14:39.158Z,0.00
2018-07-04T02:15:39.086Z,0.00
2018-07-04T02:16:39.015Z,0.00
2018-07-04T02:17:38.944Z,0.00
2018-07-04T02:18:38.872Z,0.00
2018-07-04T02:19:38.801Z,0.00
2018-07-04T02:20:38.729Z,0.00
2018-07-04T02:21:38.661Z,0.00
2018-07-04T02:22:38.587Z,0.00
2018-07-04T02:23:38.514Z,0.00
2018-07-04T02:24:38.443Z,0.00
2018-07-04T02:25:38.373Z,0.00
2018-07-04T02:26:38.302Z,0.00
2018-07-04T02:27:38.230Z,0.00
2018-07-04T02:28:38.158Z,0.00
2018-07-04T02:29:38.088Z,0.00
2018-07-04T02:30:38.017Z,0.00
2018-07-04T02:31:37.944Z,0.00
2018-07-04T02:32:37.874Z,0.00
2018-07-04T02:33:37.800Z,0.00
2018-07-04T02:34:37.730Z,0.00
2018-07-04T02:35:37.656Z,0.00
2018-07-04T02:36:37.589Z,0.00
2018-07-04T02:37:37.516Z,0.00
2018-07-04T02:38:37.445Z,0.00
2018-07-04T02:39:37.370Z,0.00
2018-07-04T02:40:37.300Z,0.00
2018-07-04T02:41:37.230Z,0.00
2018-07-04T02:42:37.157Z,0.00
2018-07-04T02:43:37.090Z,0.00
2018-07-04T02:44:37.015Z,0.00
2018-07-04T02:45:36.943Z,0.00
2018-07-04T02:46:36.872Z,0.00
2018-07-04T02:47:36.799Z,0.00
2018-07-04T02:48:36.729Z,0.00
2018-07-04T02:49:36.657Z,0.00
2018-07-04T02:50:36.586Z,0.00
2018-07-04T02:51:36.515Z,0.00
2018-07-04T02:52:36.443Z,0.00
2018-07-04T02:53:36.372Z,0.00
2018-07-04T02:54:36.301Z,0.00
2018-07-04T02:55:36.228Z,0.00
2018-07-04T02:56:36.157Z,0.00
2018-07-04T02:57:36.089Z,0.00
2018-07-04T02:58:36.014Z,0.00
2018-07-04T02:59:35.942Z,0.00
2018-07-04T03:00:35.873Z,0.00
2018-07-04T03:01:35.800Z,0.00
2018-07-04T03:02:35.727Z,0.00
2018-07-04T03:03:35.657Z,0.00
2018-07-04T03:04:35.585Z,0.00
2018-07-04T03:05:35.516Z,0.00
2018-07-04T03:06:35.441Z,0.00
2018-07-04T03:07:35.369Z,0.00
2018-07-04T03:08:35.297Z,0.00
2018-07-04T03:09:35.227Z,0.00
2018-07-04T03:10:35.154Z,0.00
2018-07-04T03:11:35.083Z,5.63
2018-07-04T03:12:35.012Z,5.63
2018-07-04T03:13:34.939Z,5.63
2018-07-04T03:14:34.867Z,5.63
2018-07-04T03:15:34.796Z,5.63
2018-07-04T03:16:34.725Z,5.63
2018-07-04T03:17:34.652Z,5.63
2018-07-04T03:18:34.580Z,5.63
2018-07-04T03:19:34.513Z,5.63
2018-07-04T03:20:34.435Z,5.63
2018-07-04T03:21:34.363Z,5.63
2018-07-04T03:22:34.292Z,5.63
2018-07-04T03:23:34.220Z,5.63
2018-07-04T03:24:34.147Z,5.63
2018-07-04T03:25:34.076Z,5.63
2018-07-04T03:26:34.004Z,5.63
2018-07-04T03:27:33.932Z,5.63
2018-07-04T03:28:33.861Z,11.25
2018-07-04T03:29:33.789Z,11.25
2018-07-04T03:30:33.719Z,11.25
2018-07-04T03:31:33.645Z,11.25
2018-07-04T03:32:33.573Z,11.25
2018-07-04T03:33:33.501Z,11.25
2018-07-04T03:34:33.429Z,11.25
2018-07-04T03:35:33.356Z,11.25
2018-07-04T03:36:33.288Z,16.88
2018-07-04T03:37:33.211Z,16.88
2018-07-04T03:38:33.142Z,16.88
2018-07-04T03:39:33.070Z,16.88
2018-07-04T03:40:32.997Z,16.88
2018-07-04T03:41:32.924Z,16.88
2018-07-04T03:42:32.853Z,16.88
2018-07-04T03:43:32.780Z,16.88
2018-07-04T03:44:33.058Z,22.50
2018-07-04T03:45:32.637Z,22.50
2018-07-04T03:46:32.564Z,22.50
2018-07-04T03:47:32.492Z,22.50
2018-07-04T03:48:32.419Z,22.50
2018-07-04T03:49:32.348Z,22.50
2018-07-04T03:50:32.276Z,22.50
2018-07-04T03:51:32.204Z,22.50
2018-07-04T03:52:32.131Z,28.13
2018-07-04T03:53:32.062Z,28.13
2018-07-04T03:54:31.988Z,28.13
2018-07-04T03:55:31.915Z,28.13
2018-07-04T03:56:31.843Z,28.13
2018-07-04T03:57:31.770Z,28.13
2018-07-04T03:58:31.699Z,33.75
2018-07-04T03:59:31.630Z,33.75
2018-07-04T04:00:31.556Z,33.75
2018-07-04T04:01:31.484Z,33.75
2018-07-04T04:02:31.411Z,33.75
2018-07-04T04:03:31.337Z,33.75
2018-07-04T04:04:31.265Z,33.75
2018-07-04T04:05:31.194Z,33.75
2018-07-04T04:06:31.124Z,39.38
2018-07-04T04:07:31.051Z,39.38
2018-07-04T04:08:30.978Z,39.38
2018-07-04T04:09:30.906Z,39.38
2018-07-04T04:10:30.834Z,39.38
2018-07-04T04:11:30.761Z,39.38
2018-07-04T04:12:30.691Z,39.38
2018-07-04T04:13:30.618Z,39.38
2018-07-04T04:14:30.547Z,45.00
2018-07-04T04:15:30.472Z,45.00
2018-07-04T04:16:30.402Z,45.00
2018-07-04T04:17:30.329Z,45.00
2018-07-04T04:18:30.257Z,45.00
2018-07-04T04:19:30.186Z,45.00
2018-07-04T04:20:30.114Z,45.00
2018-07-04T04:21:30.043Z,45.00
2018-07-04T04:22:29.975Z,45.00
2018-07-04T04:23:29.899Z,45.00
2018-07-04T04:24:29.826Z,50.63
2018-07-04T04:25:29.755Z,50.63
2018-07-04T04:26:29.682Z,50.63
2018-07-04T04:27:29.610Z,50.63
2018-07-04T04:28:29.538Z,50.63
2018-07-04T04:29:29.467Z,50.63
2018-07-04T04:30:29.395Z,50.63
2018-07-04T04:31:29.323Z,50.63
2018-07-04T04:32:29.252Z,50.63
2018-07-04T04:33:29.180Z,56.25
2018-07-04T04:34:29.108Z,56.25
2018-07-04T04:35:29.036Z,56.25
2018-07-04T04:36:28.963Z,56.25
2018-07-04T04:37:28.893Z,56.25
2018-07-04T04:38:28.821Z,61.88
2018-07-04T04:39:28.749Z,61.88
2018-07-04T04:40:28.677Z,61.88
2018-07-04T04:41:28.606Z,61.88
2018-07-04T04:42:28.609Z,67.50
2018-07-04T04:43:28.460Z,67.50
2018-07-04T04:44:28.390Z,67.50
2018-07-04T04:45:28.317Z,73.13
2018-07-04T04:46:28.247Z,73.13
2018-07-04T04:47:28.175Z,73.13
2018-07-04T04:48:28.102Z,78.75
2018-07-04T04:49:28.030Z,78.75
2018-07-04T04:50:27.959Z,78.75
2018-07-04T04:51:27.888Z,84.38
2018-07-04T04:52:27.816Z,84.38
2018-07-04T04:53:27.745Z,84.38
2018-07-04T04:54:27.674Z,90.00
2018-07-04T04:55:27.601Z,90.00
2018-07-04T04:56:27.529Z,90.00
2018-07-04T04:57:27.457Z,90.00
2018-07-04T04:58:27.387Z,95.63
2018-07-04T04:59:27.314Z,95.63
2018-07-04T05:00:27.246Z,95.63
2018-07-04T05:01:27.171Z,101.25
2018-07-04T05:02:27.101Z,101.25
2018-07-04T05:03:27.029Z,101.25
2018-07-04T05:04:27.002Z,101.25
2018-07-04T05:05:26.887Z,101.25
2018-07-04T05:06:26.815Z,101.25
2018-07-04T05:07:26.745Z,101.25
2018-07-04T05:08:26.670Z,101.25
2018-07-04T05:09:26.601Z,101.25
2018-07-04T05:10:26.532Z,101.25
2018-07-04T05:11:26.458Z,106.88
2018-07-04T05:12:26.386Z,106.88
2018-07-04T05:13:26.315Z,106.88
2018-07-04T05:14:26.249Z,106.88
2018-07-04T05:15:26.172Z,106.88
2018-07-04T05:16:26.102Z,106.88
2018-07-04T05:17:26.030Z,106.88
2018-07-04T05:18:25.960Z,112.50
2018-07-04T05:19:25.887Z,112.50
2018-07-04T05:20:25.819Z,112.50
2018-07-04T05:21:25.746Z,112.50
2018-07-04T05:22:25.680Z,112.50
2018-07-04T05:23:25.607Z,112.50
2018-07-04T05:24:25.536Z,112.50
2018-07-04T05:25:25.463Z,112.50
2018-07-04T05:26:25.392Z,112.50
2018-07-04T05:27:25.323Z,112.50
2018-07-04T05:28:25.251Z,112.50
2018-07-04T05:29:25.210Z,112.50
2018-07-04T05:30:25.111Z,112.50
2018-07-04T05:31:25.039Z,112.50
2018-07-04T05:32:24.968Z,112.50
2018-07-04T05:33:24.898Z,112.50
2018-07-04T05:34:24.826Z,112.50
2018-07-04T05:35:24.756Z,118.13
2018-07-04T05:36:24.685Z,118.13
2018-07-04T05:37:24.619Z,118.13
2018-07-04T05:38:24.544Z,118.13
2018-07-04T05:39:24.474Z,118.13
2018-07-04T05:40:24.403Z,118.13
2018-07-04T05:41:24.333Z,123.75
2018-07-04T05:42:24.262Z,123.75
2018-07-04T05:43:24.191Z,123.75
2018-07-04T05:44:24.134Z,123.75
2018-07-04T05:45:24.052Z,123.75
2018-07-04T05:46:23.979Z,123.75
2018-07-04T05:47:23.933Z,123.75
2018-07-04T05:48:23.838Z,123.75
2018-07-04T05:49:23.769Z,129.38
2018-07-04T05:50:23.698Z,129.38
2018-07-04T05:51:23.629Z,129.38
2018-07-04T05:52:23.558Z,129.38
2018-07-04T05:53:23.487Z,129.38
2018-07-04T05:54:23.417Z,135.00
2018-07-04T05:55:23.345Z,135.00
2018-07-04T05:56:23.276Z,135.00
2018-07-04T05:57:23.207Z,135.00
2018-07-04T05:58:23.136Z,140.63
2018-07-04T05:59:23.065Z,146.25
2018-07-04T06:00:22.994Z,146.25
2018-07-04T06:01:22.925Z,151.88
2018-07-04T06:02:22.855Z,146.25
2018-07-04T06:03:22.784Z,146.25
2018-07-04T06:04:22.713Z,146.25
2018-07-04T06:05:22.645Z,146.25
2018-07-04T06:06:22.573Z,146.25
2018-07-04T06:07:22.502Z,146.25
2018-07-04T06:08:22.433Z,146.25
2018-07-04T06:09:22.367Z,146.25
2018-07-04T06:10:22.293Z,146.25
2018-07-04T06:11:22.223Z,140.63
2018-07-04T06:12:22.154Z,146.25
2018-07-04T06:13:22.084Z,146.25
2018-07-04T06:14:22.015Z,151.88
2018-07-04T06:15:21.942Z,151.88
2018-07-04T06:16:21.904Z,151.88
2018-07-04T06:17:21.803Z,151.88
2018-07-04T06:18:21.744Z,157.50
2018-07-04T06:19:21.663Z,157.50
2018-07-04T06:20:21.594Z,163.13
2018-07-04T06:21:21.573Z,163.13
2018-07-04T06:22:21.457Z,168.75
2018-07-04T06:23:21.385Z,163.13
2018-07-04T06:24:21.315Z,168.75
2018-07-04T06:25:21.245Z,168.75
2018-07-04T06:26:21.176Z,174.38
2018-07-04T06:27:21.105Z,180.00
2018-07-04T06:28:21.038Z,185.63
2018-07-04T06:29:20.967Z,185.63
2018-07-04T06:30:20.900Z,191.25
2018-07-04T06:31:20.826Z,191.25
2018-07-04T06:32:20.858Z,191.25
2018-07-04T06:33:20.690Z,191.25
2018-07-04T06:34:20.620Z,191.25
2018-07-04T06:35:20.550Z,202.50
2018-07-04T06:36:20.485Z,202.50
2018-07-04T06:37:20.412Z,202.50
2018-07-04T06:38:20.345Z,202.50
2018-07-04T06:39:20.274Z,213.75
2018-07-04T06:40:20.205Z,213.75
2018-07-04T06:41:20.136Z,213.75
2018-07-04T06:42:20.068Z,213.75
2018-07-04T06:43:19.997Z,213.75
2018-07-04T06:44:19.929Z,213.75
2018-07-04T06:45:19.860Z,213.75
2018-07-04T06:46:19.791Z,213.75
2018-07-04T06:47:19.722Z,208.13
2018-07-04T06:48:19.653Z,208.13
2018-07-04T06:49:19.585Z,213.75
2018-07-04T06:50:19.515Z,213.75
2018-07-04T06:51:19.447Z,213.75
2018-07-04T06:52:19.378Z,208.13
2018-07-04T06:53:19.310Z,208.13
2018-07-04T06:54:19.276Z,213.75
2018-07-04T06:55:19.173Z,213.75
2018-07-04T06:56:19.120Z,213.75
2018-07-04T06:57:19.036Z,213.75
2018-07-04T06:58:18.994Z,213.75
2018-07-04T06:59:18.898Z,208.13
2018-07-04T07:00:18.830Z,208.13
2018-07-04T07:01:18.763Z,208.13
2018-07-04T07:02:18.693Z,208.13
2018-07-04T07:03:18.625Z,202.50
2018-07-04T07:04:18.557Z,202.50
2018-07-04T07:05:18.490Z,202.50
2018-07-04T07:06:18.423Z,208.13
2018-07-04T07:07:18.352Z,202.50
2018-07-04T07:08:18.381Z,202.50
2018-07-04T07:09:18.216Z,196.88
2018-07-04T07:10:18.147Z,196.88
2018-07-04T07:11:18.079Z,196.88
2018-07-04T07:12:18.012Z,191.25
2018-07-04T07:13:17.943Z,191.25
2018-07-04T07:14:17.879Z,191.25
2018-07-04T07:15:17.808Z,185.63
2018-07-04T07:16:17.739Z,191.25
2018-07-04T07:17:17.671Z,191.25
2018-07-04T07:18:17.606Z,191.25
2018-07-04T07:19:17.535Z,191.25
2018-07-04T07:20:17.467Z,196.88
2018-07-04T07:21:17.472Z,202.50
2018-07-04T07:22:17.332Z,208.13
2018-07-04T07:23:17.265Z,208.13
2018-07-04T07:24:17.196Z,219.38
2018-07-04T07:25:17.129Z,225.00
2018-07-04T07:26:17.062Z,225.00
2018-07-04T07:27:16.994Z,225.00
2018-07-04T07:28:16.927Z,225.00
2018-07-04T07:29:16.859Z,225.00
2018-07-04T07:30:16.791Z,219.38
2018-07-04T07:31:16.724Z,225.00
2018-07-04T07:32:16.656Z,236.25
2018-07-04T07:33:16.590Z,264.38
2018-07-04T07:34:16.612Z,286.88
2018-07-04T07:35:16.454Z,303.75
2018-07-04T07:36:16.387Z,320.63
2018-07-04T07:37:16.320Z,337.50
2018-07-04T07:38:16.254Z,354.38
2018-07-04T07:39:16.185Z,354.38
2018-07-04T07:40:16.119Z,360.00
2018-07-04T07:41:16.053Z,360.00
2018-07-04T07:42:15.985Z,360.00
2018-07-04T07:43:15.918Z,365.63
2018-07-04T07:44:15.851Z,360.00
2018-07-04T07:45:15.785Z,354.38
2018-07-04T07:46:15.718Z,348.75
2018-07-04T07:47:15.651Z,343.13
2018-07-04T07:48:15.586Z,337.50
2018-07-04T07:49:15.517Z,331.88
2018-07-04T07:50:15.452Z,326.25
2018-07-04T07:51:15.387Z,315.00
2018-07-04T07:52:15.318Z,315.00
2018-07-04T07:53:15.255Z,309.38
2018-07-04T07:54:15.262Z,303.75
2018-07-04T07:55:15.119Z,298.13
2018-07-04T07:56:15.053Z,292.50
2018-07-04T07:57:14.987Z,286.88
2018-07-04T07:58:14.921Z,286.88
2018-07-04T07:59:14.854Z,281.25
2018-07-04T08:00:14.788Z,281.25
2018-07-04T08:01:14.723Z,281.25
2018-07-04T08:02:14.657Z,281.25
2018-07-04T08:03:14.590Z,281.25
2018-07-04T08:04:14.528Z,281.25
2018-07-04T08:05:14.457Z,275.63
2018-07-04T08:06:14.393Z,281.25
2018-07-04T08:07:14.326Z,281.25
2018-07-04T08:08:14.260Z,286.88
2018-07-04T08:09:14.194Z,298.13
2018-07-04T08:10:14.128Z,298.13
2018-07-04T08:11:14.061Z,303.75
2018-07-04T08:12:13.994Z,315.00
2018-07-04T08:13:13.933Z,320.63
2018-07-04T08:14:13.864Z,326.25
2018-07-04T08:15:13.797Z,337.50
2018-07-04T08:16:13.732Z,354.38
2018-07-04T08:17:13.666Z,354.38
2018-07-04T08:18:13.601Z,360.00
2018-07-04T08:19:13.534Z,365.63
2018-07-04T08:20:13.470Z,365.63
2018-07-04T08:21:13.403Z,371.25
2018-07-04T08:22:13.336Z,376.88
2018-07-04T08:23:13.271Z,382.50
2018-07-04T08:24:13.211Z,388.13
2018-07-04T08:25:13.143Z,393.75
2018-07-04T08:26:13.133Z,405.00
2018-07-04T08:27:13.011Z,399.38
2018-07-04T08:28:12.945Z,405.00
2018-07-04T08:29:12.880Z,399.38
2018-07-04T08:30:12.814Z,405.00
2018-07-04T08:31:12.747Z,410.63
2018-07-04T08:32:12.684Z,416.25
2018-07-04T08:33:12.617Z,427.50
2018-07-04T08:34:12.554Z,438.75
2018-07-04T08:35:12.486Z,450.00
2018-07-04T08:36:12.423Z,461.25
2018-07-04T08:37:12.358Z,461.25
2018-07-04T08:38:12.293Z,466.88
2018-07-04T08:39:12.234Z,455.63
2018-07-04T08:40:12.165Z,466.88
2018-07-04T08:41:12.098Z,466.88
2018-07-04T08:42:12.033Z,472.50
2018-07-04T08:43:11.968Z,461.25
2018-07-04T08:44:11.906Z,455.63
2018-07-04T08:45:11.839Z,455.63
2018-07-04T08:46:11.775Z,455.63
2018-07-04T08:47:11.709Z,455.63
2018-07-04T08:48:11.645Z,461.25
2018-07-04T08:49:11.581Z,466.88
2018-07-04T08:50:11.516Z,461.25
2018-07-04T08:51:11.487Z,461.25
2018-07-04T08:52:11.387Z,466.88
2018-07-04T08:53:11.322Z,466.88
2018-07-04T08:54:11.257Z,466.88
2018-07-04T08:55:11.192Z,478.13
2018-07-04T08:56:11.130Z,483.75
2018-07-04T08:57:11.063Z,483.75
2018-07-04T08:58:11.044Z,489.38
2018-07-04T08:59:10.934Z,500.63
2018-07-04T09:00:10.871Z,511.88
2018-07-04T09:01:10.807Z,517.50
2018-07-04T09:02:10.742Z,523.13
2018-07-04T09:03:10.677Z,523.13
2018-07-04T09:04:10.614Z,523.13
2018-07-04T09:05:10.550Z,523.13
2018-07-04T09:06:10.487Z,523.13
2018-07-04T09:07:10.421Z,523.13
2018-07-04T09:08:10.358Z,517.50
2018-07-04T09:09:10.293Z,495.00
2018-07-04T09:10:10.236Z,506.25
2018-07-04T09:11:10.166Z,506.25
2018-07-04T09:12:10.102Z,506.25
2018-07-04T09:13:10.039Z,506.25
2018-07-04T09:14:09.978Z,506.25
2018-07-04T09:15:09.909Z,495.00
2018-07-04T09:16:09.849Z,506.25
2018-07-04T09:17:09.803Z,511.88
2018-07-04T09:18:09.719Z,517.50
2018-07-04T09:19:09.655Z,528.75
2018-07-04T09:20:09.592Z,534.38
2018-07-04T09:21:09.528Z,540.00
2018-07-04T09:22:09.465Z,545.63
2018-07-04T09:23:09.398Z,551.25
2018-07-04T09:24:09.337Z,556.88
2018-07-04T09:25:09.274Z,556.88
2018-07-04T09:26:09.210Z,562.50
2018-07-04T09:27:09.145Z,562.50
2018-07-04T09:28:09.083Z,562.50
2018-07-04T09:29:09.019Z,573.75
2018-07-04T09:30:08.958Z,579.38
2018-07-04T09:31:08.891Z,596.25
2018-07-04T09:32:08.828Z,607.50
2018-07-04T09:33:08.764Z,596.25
2018-07-04T09:34:08.702Z,579.38
2018-07-04T09:35:08.638Z,562.50
2018-07-04T09:36:08.575Z,545.63
2018-07-04T09:37:08.512Z,534.38
2018-07-04T09:38:08.448Z,528.75
2018-07-04T09:39:08.384Z,528.75
2018-07-04T09:40:08.322Z,523.13
2018-07-04T09:41:08.261Z,517.50
2018-07-04T09:42:08.195Z,511.88
2018-07-04T09:43:08.132Z,511.88
2018-07-04T09:44:08.067Z,511.88
2018-07-04T09:45:08.005Z,523.13
2018-07-04T09:46:07.942Z,523.13
2018-07-04T09:47:07.878Z,540.00
2018-07-04T09:48:07.814Z,562.50
2018-07-04T09:49:07.753Z,573.75
2018-07-04T09:50:07.689Z,573.75
2018-07-04T09:51:07.627Z,568.13
2018-07-04T09:52:07.563Z,585.00
2018-07-04T09:53:07.499Z,585.00
2018-07-04T09:54:07.437Z,601.88
2018-07-04T09:55:07.373Z,601.88
2018-07-04T09:56:07.311Z,585.00
2018-07-04T09:57:07.247Z,579.38
2018-07-04T09:58:07.184Z,562.50
2018-07-04T09:59:07.121Z,528.75
2018-07-04T10:00:07.059Z,500.63
2018-07-04T10:01:06.998Z,478.13
2018-07-04T10:02:06.933Z,444.38
2018-07-04T10:03:06.870Z,416.25
2018-07-04T10:04:06.806Z,399.38
2018-07-04T10:05:06.794Z,388.13
2018-07-04T10:06:06.681Z,376.88
2018-07-04T10:07:06.618Z,371.25
2018-07-04T10:08:06.555Z,354.38
2018-07-04T10:09:06.492Z,343.13
2018-07-04T10:10:06.430Z,331.88
2018-07-04T10:11:06.369Z,337.50
2018-07-04T10:12:06.303Z,348.75
2018-07-04T10:13:06.240Z,365.63
2018-07-04T10:14:06.178Z,376.88
2018-07-04T10:15:06.117Z,371.25
2018-07-04T10:16:06.049Z,360.00
2018-07-04T10:17:05.987Z,348.75
2018-07-04T10:18:05.923Z,354.38
2018-07-04T10:19:05.859Z,360.00
2018-07-04T10:20:05.796Z,365.63
2018-07-04T10:21:05.732Z,376.88
2018-07-04T10:22:05.670Z,393.75
2018-07-04T10:23:05.605Z,416.25
2018-07-04T10:24:05.540Z,433.13
2018-07-04T10:25:05.477Z,461.25
2018-07-04T10:26:05.414Z,495.00
2018-07-04T10:27:05.349Z,540.00
2018-07-04T10:28:05.284Z,573.75
2018-07-04T10:29:05.222Z,618.75
2018-07-04T10:30:05.159Z,652.50
2018-07-04T10:31:05.094Z,680.63
2018-07-04T10:32:05.031Z,697.50
2018-07-04T10:33:04.969Z,708.75
2018-07-04T10:34:04.901Z,697.50
2018-07-04T10:35:04.837Z,697.50
2018-07-04T10:36:04.773Z,669.38
2018-07-04T10:37:04.711Z,646.88
2018-07-04T10:38:04.646Z,618.75
2018-07-04T10:39:04.583Z,596.25
2018-07-04T10:40:04.518Z,568.13
2018-07-04T10:41:04.455Z,545.63
2018-07-04T10:42:04.403Z,517.50
2018-07-04T10:43:04.327Z,495.00
2018-07-04T10:44:04.267Z,483.75
2018-07-04T10:45:04.202Z,478.13
2018-07-04T10:46:04.136Z,472.50
2018-07-04T10:47:04.073Z,466.88
2018-07-04T10:48:04.008Z,466.88
2018-07-04T10:49:03.946Z,455.63
2018-07-04T10:50:03.880Z,455.63
2018-07-04T10:51:03.838Z,444.38
2018-07-04T10:52:03.751Z,438.75
2018-07-04T10:53:03.688Z,433.13
2018-07-04T10:54:03.625Z,433.13
2018-07-04T10:55:03.560Z,433.13
2018-07-04T10:56:03.497Z,427.50
2018-07-04T10:57:03.432Z,421.88
2018-07-04T10:58:03.368Z,433.13
2018-07-04T10:59:03.305Z,433.13
2018-07-04T11:00:03.240Z,438.75
2018-07-04T11:01:03.176Z,438.75
2018-07-04T11:02:03.113Z,438.75
2018-07-04T11:03:03.047Z,444.38
2018-07-04T11:04:02.984Z,450.00
2018-07-04T11:05:02.920Z,461.25
2018-07-04T11:06:02.856Z,461.25
2018-07-04T11:07:02.792Z,466.88
2018-07-04T11:08:02.728Z,466.88
2018-07-04T11:09:02.664Z,466.88
2018-07-04T11:10:02.609Z,472.50
2018-07-04T11:11:02.538Z,472.50
2018-07-04T11:12:02.472Z,478.13
2018-07-04T11:13:02.408Z,483.75
2018-07-04T11:14:02.345Z,489.38
2018-07-04T11:15:02.280Z,495.00
2018-07-04T11:16:02.216Z,500.63
2018-07-04T11:17:02.239Z,511.88
2018-07-04T11:18:02.089Z,556.88
2018-07-04T11:19:02.025Z,579.38
2018-07-04T11:20:01.962Z,641.25
2018-07-04T11:21:01.899Z,990.00
2018-07-04T11:22:01.837Z,1980.00
2018-07-04T11:23:01.773Z,3133.13
2018-07-04T11:24:01.710Z,3768.75
2018-07-04T11:25:01.650Z,4207.50
2018-07-04T11:26:01.586Z,3183.75
2018-07-04T11:27:01.524Z,3093.75
2018-07-04T11:28:01.462Z,3116.25
2018-07-04T11:29:01.402Z,3498.75
2018-07-04T11:30:01.344Z,3183.75
2018-07-04T11:31:01.280Z,4145.63
2018-07-04T11:32:01.221Z,4471.88
2018-07-04T11:33:01.160Z,4595.63
2018-07-04T11:34:01.101Z,4573.13
2018-07-04T11:35:01.040Z,4719.38
2018-07-04T11:36:00.982Z,4550.63
2018-07-04T11:37:00.923Z,4623.75
2018-07-04T11:38:00.864Z,4730.63
2018-07-04T11:39:00.806Z,3746.25
2018-07-04T11:40:00.749Z,4561.88
2018-07-04T11:41:00.691Z,4488.75
2018-07-04T11:42:00.634Z,4314.38
2018-07-04T11:43:00.576Z,1940.63
2018-07-04T11:44:00.520Z,2289.38
2018-07-04T11:45:00.464Z,3324.38
2018-07-04T11:46:00.409Z,2182.50
2018-07-04T11:47:00.350Z,3279.38
2018-07-04T11:48:00.293Z,4370.63
2018-07-04T11:49:00.237Z,4905.00
2018-07-04T11:50:00.182Z,4646.25
2018-07-04T11:51:00.125Z,4753.13
2018-07-04T11:52:00.071Z,4916.25
2018-07-04T11:53:00.040Z,4691.25
2018-07-04T11:53:59.961Z,4320.00
2018-07-04T11:54:59.900Z,4078.13
2018-07-04T11:55:59.848Z,4263.75
2018-07-04T11:56:59.812Z,4545.00
2018-07-04T11:57:59.739Z,4876.88
2018-07-04T11:58:59.681Z,4837.50
2018-07-04T11:59:59.626Z,4663.13
2018-07-04T12:00:59.573Z,4770.00
2018-07-04T12:01:59.518Z,5017.50
2018-07-04T12:02:59.464Z,5045.63
2018-07-04T12:03:59.409Z,5236.88
2018-07-04T12:04:59.361Z,5281.88
2018-07-04T12:05:59.303Z,5113.13
2018-07-04T12:06:59.249Z,5085.00
2018-07-04T12:07:59.196Z,4803.75
2018-07-04T12:08:59.142Z,4826.25
2018-07-04T12:09:59.089Z,4972.50
2018-07-04T12:10:59.093Z,5079.38
2018-07-04T12:11:58.982Z,4573.13
2018-07-04T12:12:58.930Z,3436.88
2018-07-04T12:13:58.877Z,2851.88
2018-07-04T12:14:58.824Z,4668.75
2018-07-04T12:15:58.770Z,4837.50
2018-07-04T12:16:58.719Z,5096.25
2018-07-04T12:17:58.666Z,4978.13
2018-07-04T12:18:58.613Z,4342.50
2018-07-04T12:19:58.560Z,4674.38
2018-07-04T12:20:58.548Z,5045.63
2018-07-04T12:21:58.456Z,5265.00
2018-07-04T12:22:58.402Z,5152.50
2018-07-04T12:23:58.350Z,5270.63
2018-07-04T12:24:58.300Z,5186.25
2018-07-04T12:25:58.246Z,5310.00
2018-07-04T12:26:58.200Z,4899.38
2018-07-04T12:27:58.142Z,3054.38
2018-07-04T12:28:58.092Z,4927.50
2018-07-04T12:29:58.039Z,4286.25
2018-07-04T12:30:57.987Z,4308.75
2018-07-04T12:31:57.976Z,4201.88
2018-07-04T12:32:57.884Z,4044.38
2018-07-04T12:33:57.833Z,3813.75
2018-07-04T12:34:57.780Z,3414.38
2018-07-04T12:35:57.730Z,4078.13
2018-07-04T12:36:57.678Z,4078.13
2018-07-04T12:37:57.632Z,4201.88
2018-07-04T12:38:57.573Z,4275.00
2018-07-04T12:39:57.522Z,4477.50
2018-07-04T12:40:57.471Z,4213.13